sensor_id;sensor_type;location;lat;lon;timestamp;P1;durP1;ratioP1;P2;durP2;ratioP2
17261;SDS011;9873;52.236;21.002;2022-12-29T00:07:26;7.57;;;4.93;;
17261;SDS011;9873;52.236;21.002;2022-12-29T00:17:29;9.27;;;5.33;;
17261;SDS011;9873;52.236;21.002;2022-12-29T00:27:34;9.27;;;5.03;;
17261;SDS011;9873;52.236;21.002;2022-12-29T00:38:03;8.00;;;4.37;;
17261;SDS011;9873;52.236;21.002;2022-12-29T00:48:30;10.13;;;4.77;;
17261;SDS011;9873;52.236;21.002;2022-12-29T00:59:06;7.33;;;4.20;;
17261;SDS011;9873;52.236;21.002;2022-12-29T01:09:14;8.03;;;4.17;;
17261;SDS011;9873;52.236;21.002;2022-12-29T01:19:38;6.57;;;3.90;;
17261;SDS011;9873;52.236;21.002;2022-12-29T01:29:46;7.63;;;4.40;;
17261;SDS011;9873;52.236;21.002;2022-12-29T01:39:49;8.57;;;4.33;;
17261;SDS011;9873;52.236;21.002;2022-12-29T01:49:57;8.23;;;4.07;;
17261;SDS011;9873;52.236;21.002;2022-12-29T02:00:08;7.57;;;4.20;;
17261;SDS011;9873;52.236;21.002;2022-12-29T02:10:15;6.23;;;2.77;;
17261;SDS011;9873;52.236;21.002;2022-12-29T02:51:32;6.33;;;3.43;;
17261;SDS011;9873;52.236;21.002;2022-12-29T03:12:33;7.20;;;3.50;;
17261;SDS011;9873;52.236;21.002;2022-12-29T03:23:21;5.30;;;3.33;;
17261;SDS011;9873;52.236;21.002;2022-12-29T03:33:28;6.10;;;3.80;;
17261;SDS011;9873;52.236;21.002;2022-12-29T03:43:41;5.63;;;3.57;;
17261;SDS011;9873;52.236;21.002;2022-12-29T03:53:49;4.60;;;3.27;;
17261;SDS011;9873;52.236;21.002;2022-12-29T04:03:54;4.27;;;2.90;;
17261;SDS011;9873;52.236;21.002;2022-12-29T04:14:04;6.23;;;3.57;;
17261;SDS011;9873;52.236;21.002;2022-12-29T04:24:09;7.27;;;3.70;;
17261;SDS011;9873;52.236;21.002;2022-12-29T04:34:16;7.90;;;3.73;;
17261;SDS011;9873;52.236;21.002;2022-12-29T04:44:25;10.00;;;4.80;;
17261;SDS011;9873;52.236;21.002;2022-12-29T04:54:43;9.67;;;4.87;;
17261;SDS011;9873;52.236;21.002;2022-12-29T05:04:52;7.60;;;4.37;;
17261;SDS011;9873;52.236;21.002;2022-12-29T05:14:55;9.23;;;4.63;;
17261;SDS011;9873;52.236;21.002;2022-12-29T05:25:00;13.93;;;5.90;;
17261;SDS011;9873;52.236;21.002;2022-12-29T05:35:05;9.47;;;5.63;;
17261;SDS011;9873;52.236;21.002;2022-12-29T05:45:09;9.33;;;4.87;;
17261;SDS011;9873;52.236;21.002;2022-12-29T05:55:27;6.40;;;3.70;;
17261;SDS011;9873;52.236;21.002;2022-12-29T06:05:32;6.83;;;3.00;;
17261;SDS011;9873;52.236;21.002;2022-12-29T06:15:38;8.57;;;4.47;;
17261;SDS011;9873;52.236;21.002;2022-12-29T06:25:47;7.47;;;4.40;;
17261;SDS011;9873;52.236;21.002;2022-12-29T06:35:51;10.57;;;4.20;;
17261;SDS011;9873;52.236;21.002;2022-12-29T06:45:59;6.43;;;4.27;;
17261;SDS011;9873;52.236;21.002;2022-12-29T06:56:04;7.70;;;4.33;;
17261;SDS011;9873;52.236;21.002;2022-12-29T07:06:07;11.13;;;4.60;;
17261;SDS011;9873;52.236;21.002;2022-12-29T07:16:09;6.40;;;3.90;;
17261;SDS011;9873;52.236;21.002;2022-12-29T07:26:19;7.67;;;4.30;;
17261;SDS011;9873;52.236;21.002;2022-12-29T07:36:24;9.23;;;3.87;;
17261;SDS011;9873;52.236;21.002;2022-12-29T07:46:34;5.13;;;2.97;;
17261;SDS011;9873;52.236;21.002;2022-12-29T07:57:00;6.23;;;3.43;;
17261;SDS011;9873;52.236;21.002;2022-12-29T08:07:04;7.30;;;3.80;;
17261;SDS011;9873;52.236;21.002;2022-12-29T08:17:09;8.17;;;4.07;;
17261;SDS011;9873;52.236;21.002;2022-12-29T08:27:14;9.17;;;3.80;;
17261;SDS011;9873;52.236;21.002;2022-12-29T08:37:26;8.10;;;3.73;;
17261;SDS011;9873;52.236;21.002;2022-12-29T08:47:34;9.83;;;4.10;;
17261;SDS011;9873;52.236;21.002;2022-12-29T08:57:37;6.60;;;3.57;;
17261;SDS011;9873;52.236;21.002;2022-12-29T09:07:47;6.00;;;3.50;;
17261;SDS011;9873;52.236;21.002;2022-12-29T09:17:49;7.10;;;3.37;;
17261;SDS011;9873;52.236;21.002;2022-12-29T09:27:54;6.03;;;3.73;;
17261;SDS011;9873;52.236;21.002;2022-12-29T09:38:00;8.07;;;4.37;;
17261;SDS011;9873;52.236;21.002;2022-12-29T09:48:17;6.67;;;3.93;;
17261;SDS011;9873;52.236;21.002;2022-12-29T10:29:35;6.10;;;3.67;;
17261;SDS011;9873;52.236;21.002;2022-12-29T10:39:48;8.95;;;4.40;;
17261;SDS011;9873;52.236;21.002;2022-12-29T10:49:55;5.37;;;3.63;;
17261;SDS011;9873;52.236;21.002;2022-12-29T11:00:13;9.97;;;4.00;;
17261;SDS011;9873;52.236;21.002;2022-12-29T11:21:35;8.00;;;4.00;;
17261;SDS011;9873;52.236;21.002;2022-12-29T11:31:47;10.43;;;4.50;;
17261;SDS011;9873;52.236;21.002;2022-12-29T11:42:02;7.70;;;4.05;;
17261;SDS011;9873;52.236;21.002;2022-12-29T11:52:07;9.43;;;4.70;;
17261;SDS011;9873;52.236;21.002;2022-12-29T13:14:51;8.18;;;4.55;;
17261;SDS011;9873;52.236;21.002;2022-12-29T13:45:26;7.65;;;4.28;;
17261;SDS011;9873;52.236;21.002;2022-12-29T13:55:53;6.57;;;4.00;;
17261;SDS011;9873;52.236;21.002;2022-12-29T14:06:25;7.38;;;4.20;;
17261;SDS011;9873;52.236;21.002;2022-12-29T14:16:32;7.70;;;4.28;;
17261;SDS011;9873;52.236;21.002;2022-12-29T14:26:42;8.73;;;4.80;;
17261;SDS011;9873;52.236;21.002;2022-12-29T14:37:02;8.63;;;4.53;;
17261;SDS011;9873;52.236;21.002;2022-12-29T14:47:06;9.75;;;4.35;;
17261;SDS011;9873;52.236;21.002;2022-12-29T14:57:19;9.63;;;4.28;;
17261;SDS011;9873;52.236;21.002;2022-12-29T15:07:30;7.88;;;4.72;;
17261;SDS011;9873;52.236;21.002;2022-12-29T15:17:34;10.07;;;4.88;;
17261;SDS011;9873;52.236;21.002;2022-12-29T15:27:38;8.93;;;5.40;;
17261;SDS011;9873;52.236;21.002;2022-12-29T15:37:44;8.88;;;5.43;;
17261;SDS011;9873;52.236;21.002;2022-12-29T15:47:49;7.73;;;4.37;;
17261;SDS011;9873;52.236;21.002;2022-12-29T15:57:58;8.32;;;5.38;;
17261;SDS011;9873;52.236;21.002;2022-12-29T16:08:15;8.03;;;4.93;;
17261;SDS011;9873;52.236;21.002;2022-12-29T16:18:35;7.57;;;4.73;;
17261;SDS011;9873;52.236;21.002;2022-12-29T16:28:41;9.40;;;4.90;;
17261;SDS011;9873;52.236;21.002;2022-12-29T16:38:47;8.23;;;5.30;;
17261;SDS011;9873;52.236;21.002;2022-12-29T16:48:50;8.30;;;5.15;;
17261;SDS011;9873;52.236;21.002;2022-12-29T16:59:04;12.03;;;5.20;;
17261;SDS011;9873;52.236;21.002;2022-12-29T17:09:17;7.67;;;4.60;;
17261;SDS011;9873;52.236;21.002;2022-12-29T17:19:26;9.13;;;4.65;;
17261;SDS011;9873;52.236;21.002;2022-12-29T17:29:37;7.05;;;4.72;;
17261;SDS011;9873;52.236;21.002;2022-12-29T17:39:42;9.25;;;5.30;;
17261;SDS011;9873;52.236;21.002;2022-12-29T17:49:49;8.20;;;5.32;;
17261;SDS011;9873;52.236;21.002;2022-12-29T17:59:51;13.73;;;5.78;;
17261;SDS011;9873;52.236;21.002;2022-12-29T18:09:54;9.68;;;5.93;;
17261;SDS011;9873;52.236;21.002;2022-12-29T18:20:01;10.05;;;5.38;;
17261;SDS011;9873;52.236;21.002;2022-12-29T18:30:06;10.57;;;5.57;;
17261;SDS011;9873;52.236;21.002;2022-12-29T18:40:12;8.77;;;5.47;;
17261;SDS011;9873;52.236;21.002;2022-12-29T18:50:15;10.63;;;5.50;;
17261;SDS011;9873;52.236;21.002;2022-12-29T19:00:21;11.98;;;6.65;;
17261;SDS011;9873;52.236;21.002;2022-12-29T19:10:29;12.13;;;6.55;;
17261;SDS011;9873;52.236;21.002;2022-12-29T19:20:33;12.90;;;6.83;;
17261;SDS011;9873;52.236;21.002;2022-12-29T19:30:43;10.85;;;6.55;;
17261;SDS011;9873;52.236;21.002;2022-12-29T19:40:53;10.03;;;6.40;;
17261;SDS011;9873;52.236;21.002;2022-12-29T19:51:17;10.60;;;6.73;;
17261;SDS011;9873;52.236;21.002;2022-12-29T20:01:21;13.23;;;7.00;;
17261;SDS011;9873;52.236;21.002;2022-12-29T20:11:33;14.32;;;6.85;;
17261;SDS011;9873;52.236;21.002;2022-12-29T20:21:36;11.83;;;6.63;;
17261;SDS011;9873;52.236;21.002;2022-12-29T20:31:44;12.10;;;6.67;;
17261;SDS011;9873;52.236;21.002;2022-12-29T20:41:49;12.73;;;6.87;;
17261;SDS011;9873;52.236;21.002;2022-12-29T20:51:53;12.40;;;6.95;;
17261;SDS011;9873;52.236;21.002;2022-12-29T21:02:16;12.45;;;6.63;;
17261;SDS011;9873;52.236;21.002;2022-12-29T21:12:21;16.10;;;6.72;;
17261;SDS011;9873;52.236;21.002;2022-12-29T21:22:28;12.40;;;7.18;;
17261;SDS011;9873;52.236;21.002;2022-12-29T21:32:31;11.87;;;5.87;;
17261;SDS011;9873;52.236;21.002;2022-12-29T21:42:40;11.50;;;6.10;;
17261;SDS011;9873;52.236;21.002;2022-12-29T21:52:45;8.85;;;5.63;;
17261;SDS011;9873;52.236;21.002;2022-12-29T22:02:49;9.60;;;6.45;;
17261;SDS011;9873;52.236;21.002;2022-12-29T22:13:21;11.27;;;6.20;;
17261;SDS011;9873;52.236;21.002;2022-12-29T22:23:23;10.90;;;6.57;;
17261;SDS011;9873;52.236;21.002;2022-12-29T22:33:27;10.85;;;6.40;;
17261;SDS011;9873;52.236;21.002;2022-12-29T22:43:32;9.98;;;5.78;;
17261;SDS011;9873;52.236;21.002;2022-12-29T22:53:37;8.93;;;6.03;;
17261;SDS011;9873;52.236;21.002;2022-12-29T23:03:43;10.63;;;5.75;;
17261;SDS011;9873;52.236;21.002;2022-12-29T23:13:48;8.30;;;5.53;;
17261;SDS011;9873;52.236;21.002;2022-12-29T23:23:52;9.75;;;5.63;;
17261;SDS011;9873;52.236;21.002;2022-12-29T23:33:56;11.68;;;5.95;;
17261;SDS011;9873;52.236;21.002;2022-12-29T23:44:02;7.63;;;5.45;;
17261;SDS011;9873;52.236;21.002;2022-12-29T23:54:07;9.63;;;5.73;;
